Airfield :







YOU CAN JOIN US ON...

 
LOGIN :

Register | Disclaimer

   EN    FR    IT 

 









Legend :    VFR   Marginal VFR   IFR   Intensive IFR   Very Intensive IFR
Visi :
Ceiling :
>= 8 km
>= 3000ft
5 to 8 km
1000 to 3000 ft
1500m to 5 km
500 to 1000 ft
800 to 1500m
200 to 500 ft
< 800m
< 200 ft
Symbols :   Thunderstorms  Fog  Heavy snow  Heavy precipitations  Wind > 20 kt






- Airport Elevation : 108 ft
- IATA code : YAY


CYAY - St Anthony

EXPIRED METARs :
  • 242100Z AUTO 14009KT 9SM CLR 15/11 A2955 RMK SLP008 DENSITY ALT 600FT

TAF TAF CYAY
Valid from the 24 at 20:00 until the 25 at 08:00 UTC


241940Z 2420/2508 13012KT P6SM SCT015 BKN160
TEMPO 2420/2424 P6SM -SHRA BKN015 BKN160 RMK FCST BASED ON AUTO OBS. NXT FCST BY 250200Z
CZQX FIR / North America



MET'MAP, your aeronautical weather chart ! - Copyright ORBIFLY December 2007 - Disclaimer

ORBIFLY MET'MAP TEAM :

Programming & Development : Alexandra Zaïnal
Original concept : Baudouin d'Aumeries
Technical & hardware support : Manuel Goepfert
Assistance : Marc-Olivier Méhu




SOURCES & CREDITS :

   NOAA